Aviation Digital Data Service (ADDS)

Output produced by TAFs form (0752 UTC 25 March 2017)
found at http://www.aviationweather.gov/adds/tafs/
 
METAR text: RJAF 250700Z 35007KT 320V020 9999 FEW060 SCT070 08/M07 Q1014
Conditions at: RJAF (MATSUMOTO AIRPOR, JP) observed 0700 UTC 25 March 2017
Temperature: 8.0°C (46°F)
Dewpoint: -7.0°C (19°F) [RH = 34%]
Pressure (altimeter): 29.94 inches Hg (1014.0 mb)
Winds: from the N (350 degrees) at 8 MPH (7 knots; 3.6 m/s)
Visibility: 6 or more miles (10+ km)
Ceiling: at least 12,000 feet AGL
Clouds: few clouds at 6000 feet AGL
scattered clouds at 7000 feet AGL
Weather: no significant weather observed at this time